createdAt,value
2019-05-07T00:00:05.821Z,16.83
2019-05-07T00:01:17.951Z,14.33
2019-05-07T00:02:25.557Z,16.23
2019-05-07T00:03:29.823Z,14.43
2019-05-07T00:04:34.128Z,18.80
2019-05-07T00:05:38.352Z,15.97
2019-05-07T00:06:43.479Z,13.57
2019-05-07T00:07:47.808Z,16.47
2019-05-07T00:08:52.304Z,14.23
2019-05-07T00:09:56.663Z,13.20
2019-05-07T00:11:02.289Z,11.27
2019-05-07T00:12:06.675Z,9.67
2019-05-07T00:13:12.801Z,9.30
2019-05-07T00:14:16.794Z,13.13
2019-05-07T00:15:22.867Z,7.90
2019-05-07T00:16:26.839Z,10.90
2019-05-07T00:17:32.315Z,10.17
2019-05-07T00:18:36.721Z,10.60
2019-05-07T00:19:43.015Z,8.87
2019-05-07T00:20:46.856Z,11.30
2019-05-07T00:21:52.793Z,10.27
2019-05-07T00:22:56.983Z,10.17
2019-05-07T00:24:02.233Z,10.83
2019-05-07T00:25:06.699Z,16.10
2019-05-07T00:26:13.044Z,9.07
2019-05-07T00:27:16.824Z,9.10
2019-05-07T00:28:23.031Z,11.33
2019-05-07T00:29:26.953Z,9.77
2019-05-07T00:30:33.154Z,10.97
2019-05-07T00:31:37.176Z,11.57
2019-05-07T00:32:42.395Z,9.97
2019-05-07T00:33:46.723Z,9.57
2019-05-07T00:34:55.117Z,8.93
2019-05-07T00:36:13.851Z,10.83
2019-05-07T00:37:33.637Z,13.50
2019-05-07T00:38:39.588Z,9.67
2019-05-07T00:40:07.058Z,9.87
2019-05-07T00:41:22.970Z,12.00
2019-05-07T00:42:32.811Z,13.17
2019-05-07T00:43:39.141Z,11.80
2019-05-07T00:45:15.868Z,11.67
2019-05-07T00:46:13.021Z,11.37
2019-05-07T00:47:17.260Z,17.37
2019-05-07T00:48:23.491Z,12.80
2019-05-07T00:49:28.375Z,13.17
2019-05-07T00:50:34.111Z,12.20
2019-05-07T00:51:38.345Z,12.70
2019-05-07T00:52:43.069Z,11.67
2019-05-07T00:53:47.451Z,13.20
2019-05-07T00:54:53.121Z,11.63
2019-05-07T00:55:57.364Z,11.73
2019-05-07T00:57:03.082Z,16.00
2019-05-07T00:58:07.461Z,12.53
2019-05-07T00:59:13.125Z,13.17
2019-05-07T01:00:17.516Z,14.03
2019-05-07T01:01:22.699Z,16.07
2019-05-07T01:02:27.096Z,16.43
2019-05-07T01:03:32.865Z,14.87
2019-05-07T01:04:37.195Z,14.93
2019-05-07T01:05:43.210Z,14.33
2019-05-07T01:06:47.387Z,15.17
2019-05-07T01:07:52.944Z,16.33
2019-05-07T01:08:57.267Z,13.60
2019-05-07T01:10:02.305Z,14.17
2019-05-07T01:11:06.683Z,13.90
2019-05-07T01:12:12.538Z,15.00
2019-05-07T01:13:16.849Z,14.73
2019-05-07T01:14:22.790Z,16.80
2019-05-07T01:15:30.675Z,15.33
2019-05-07T01:16:33.151Z,13.30
2019-05-07T01:17:37.462Z,15.77
2019-05-07T01:18:42.191Z,16.47
2019-05-07T01:19:46.437Z,14.60
2019-05-07T01:20:53.050Z,17.00
2019-05-07T01:21:56.580Z,17.17
2019-05-07T01:23:02.601Z,17.03
2019-05-07T01:24:06.700Z,14.93
2019-05-07T01:25:12.904Z,16.30
2019-05-07T01:26:16.850Z,14.57
2019-05-07T01:27:22.667Z,16.43
2019-05-07T01:28:27.158Z,14.47
2019-05-07T01:29:32.815Z,17.70
2019-05-07T01:30:37.234Z,15.50
2019-05-07T01:32:03.229Z,16.83
2019-05-07T01:33:17.660Z,16.27
2019-05-07T01:34:28.315Z,13.97
2019-05-07T01:35:52.792Z,17.10
2019-05-07T01:36:56.352Z,14.53
2019-05-07T01:38:00.592Z,17.40
2019-05-07T01:39:05.562Z,14.33
2019-05-07T01:40:12.108Z,16.60
2019-05-07T01:41:15.756Z,15.63
2019-05-07T01:42:22.030Z,16.20
2019-05-07T01:43:25.882Z,16.97
2019-05-07T01:44:32.357Z,16.03
2019-05-07T01:45:46.479Z,14.60
2019-05-07T01:46:44.352Z,14.60
2019-05-07T01:47:48.583Z,15.00
2019-05-07T01:48:57.012Z,14.90
2019-05-07T01:49:58.722Z,15.87
2019-05-07T01:51:03.518Z,16.13
2019-05-07T01:52:07.949Z,19.40
2019-05-07T01:53:12.333Z,17.63
2019-05-07T01:54:16.644Z,15.07
2019-05-07T01:55:22.601Z,15.33
2019-05-07T01:56:26.948Z,19.57
2019-05-07T01:57:32.591Z,17.27
2019-05-07T01:58:37.131Z,17.97
2019-05-07T01:59:42.709Z,16.00
2019-05-07T02:00:47.116Z,20.27
2019-05-07T02:01:53.063Z,15.93
2019-05-07T02:03:02.992Z,16.60
2019-05-07T02:04:24.583Z,17.87
2019-05-07T02:05:37.475Z,18.90
2019-05-07T02:06:59.445Z,23.87
2019-05-07T02:08:06.380Z,19.77
2019-05-07T02:09:22.495Z,15.67
2019-05-07T02:10:32.199Z,17.20
2019-05-07T02:11:42.567Z,16.97
2019-05-07T02:12:46.796Z,21.73
2019-05-07T02:13:52.828Z,19.13
2019-05-07T02:14:56.922Z,19.40
2019-05-07T02:16:04.049Z,16.43
2019-05-07T02:17:07.111Z,16.40
2019-05-07T02:18:12.574Z,15.70
2019-05-07T02:19:16.826Z,20.70
2019-05-07T02:20:22.538Z,19.57
2019-05-07T02:21:26.932Z,17.47
2019-05-07T02:22:31.987Z,17.00
2019-05-07T02:23:36.455Z,19.33
2019-05-07T02:24:43.247Z,20.17
2019-05-07T02:25:46.585Z,18.27
2019-05-07T02:26:52.120Z,18.47
2019-05-07T02:27:56.523Z,19.33
2019-05-07T02:29:02.567Z,19.87
2019-05-07T02:30:06.667Z,18.23
2019-05-07T02:31:14.640Z,18.70
2019-05-07T02:32:16.793Z,22.57
2019-05-07T02:33:23.022Z,18.13
2019-05-07T02:34:26.951Z,18.60
2019-05-07T02:35:33.311Z,17.33
2019-05-07T02:36:37.492Z,18.03
2019-05-07T02:37:53.492Z,17.07
2019-05-07T02:39:03.807Z,17.43
2019-05-07T02:40:33.867Z,15.67
2019-05-07T02:41:38.508Z,16.37
2019-05-07T02:42:44.277Z,15.93
2019-05-07T02:43:48.699Z,15.77
2019-05-07T02:45:13.035Z,19.80
2019-05-07T02:46:30.534Z,15.43
2019-05-07T02:47:28.406Z,17.70
2019-05-07T02:48:36.956Z,17.40
2019-05-07T02:49:46.683Z,17.40
2019-05-07T02:50:56.279Z,18.23
2019-05-07T02:52:05.909Z,19.73
2019-05-07T02:53:24.918Z,16.27
2019-05-07T02:54:48.092Z,16.53
2019-05-07T02:55:54.905Z,16.17
2019-05-07T02:56:59.135Z,16.27
2019-05-07T02:58:03.770Z,18.73
2019-05-07T02:59:08.236Z,15.97
2019-05-07T03:00:14.151Z,16.60
2019-05-07T03:01:18.366Z,14.77
2019-05-07T03:02:24.021Z,17.10
2019-05-07T03:03:28.692Z,15.67
2019-05-07T03:04:33.483Z,16.97
2019-05-07T03:05:37.848Z,16.97
2019-05-07T03:06:44.227Z,16.87
2019-05-07T03:07:47.992Z,17.80
2019-05-07T03:08:53.491Z,17.53
2019-05-07T03:09:58.008Z,18.30
2019-05-07T03:11:03.357Z,17.07
2019-05-07T03:12:07.884Z,15.13
2019-05-07T03:13:13.781Z,17.23
2019-05-07T03:14:18.071Z,16.60
2019-05-07T03:15:24.262Z,16.60
2019-05-07T03:16:39.661Z,15.83
2019-05-07T03:17:34.076Z,14.67
2019-05-07T03:18:38.327Z,18.10
2019-05-07T03:19:44.175Z,15.70
2019-05-07T03:20:53.478Z,18.40
2019-05-07T03:21:57.907Z,16.77
2019-05-07T03:23:03.159Z,15.57
2019-05-07T03:24:23.008Z,15.43
2019-05-07T03:25:33.555Z,15.10
2019-05-07T03:26:43.351Z,16.40
2019-05-07T03:27:46.121Z,14.47
2019-05-07T03:29:03.927Z,17.70
2019-05-07T03:30:26.850Z,19.60
2019-05-07T03:31:38.206Z,15.10
2019-05-07T03:32:49.229Z,16.70
2019-05-07T03:34:07.033Z,17.03
2019-05-07T03:35:28.319Z,16.03
2019-05-07T03:36:47.530Z,17.83
2019-05-07T03:37:50.492Z,15.63
2019-05-07T03:38:54.734Z,16.50
2019-05-07T03:39:58.979Z,18.33
2019-05-07T03:41:03.883Z,17.43
2019-05-07T03:42:08.247Z,17.30
2019-05-07T03:43:13.780Z,15.33
2019-05-07T03:44:28.621Z,14.77
2019-05-07T03:45:43.340Z,17.97
2019-05-07T03:46:58.227Z,16.50
2019-05-07T03:48:03.727Z,16.37
2019-05-07T03:49:09.801Z,15.23
2019-05-07T03:50:14.899Z,13.87
2019-05-07T03:51:19.329Z,15.10
2019-05-07T03:52:24.431Z,15.37
2019-05-07T03:53:29.111Z,14.63
2019-05-07T03:54:33.996Z,16.37
2019-05-07T03:55:38.613Z,14.60
2019-05-07T03:56:43.526Z,17.50
2019-05-07T03:57:47.993Z,15.77
2019-05-07T03:58:52.892Z,16.23
2019-05-07T03:59:57.268Z,16.37
2019-05-07T04:01:04.228Z,15.23
2019-05-07T04:02:07.423Z,15.73
2019-05-07T04:03:13.937Z,15.80
2019-05-07T04:04:17.809Z,17.77
2019-05-07T04:05:23.324Z,14.27
2019-05-07T04:06:27.833Z,17.13
2019-05-07T04:07:33.734Z,16.97
2019-05-07T04:08:37.980Z,17.87
2019-05-07T04:09:43.752Z,15.27
2019-05-07T04:10:48.440Z,17.60
2019-05-07T04:11:54.506Z,16.47
2019-05-07T04:12:58.749Z,14.33
2019-05-07T04:14:03.458Z,16.23
2019-05-07T04:15:07.706Z,15.27
2019-05-07T04:16:13.508Z,15.40
2019-05-07T04:17:23.257Z,15.37
2019-05-07T04:18:24.103Z,16.33
2019-05-07T04:19:28.348Z,16.60
2019-05-07T04:20:33.434Z,16.27
2019-05-07T04:21:37.950Z,15.23
2019-05-07T04:22:43.266Z,14.60
2019-05-07T04:23:49.189Z,17.77
2019-05-07T04:25:24.794Z,12.90
2019-05-07T04:26:38.343Z,15.93
2019-05-07T04:27:52.718Z,14.60
2019-05-07T04:29:06.426Z,14.70
2019-05-07T04:30:12.731Z,12.47
2019-05-07T04:31:16.715Z,14.87
2019-05-07T04:32:23.232Z,14.77
2019-05-07T04:33:33.335Z,15.07
2019-05-07T04:34:55.653Z,15.60
2019-05-07T04:36:18.868Z,17.60
2019-05-07T04:37:24.021Z,15.07
2019-05-07T04:38:28.336Z,13.83
2019-05-07T04:39:33.513Z,15.20
2019-05-07T04:40:37.811Z,14.33
2019-05-07T04:41:43.479Z,16.33
2019-05-07T04:42:47.925Z,16.67
2019-05-07T04:43:54.024Z,15.67
2019-05-07T04:44:58.065Z,12.90
2019-05-07T04:46:03.235Z,13.97
2019-05-07T04:47:07.764Z,15.17
2019-05-07T04:48:14.098Z,15.20
2019-05-07T04:49:17.876Z,13.93
2019-05-07T04:50:37.878Z,15.23
2019-05-07T04:51:37.677Z,14.27
2019-05-07T04:52:43.746Z,15.73
2019-05-07T04:53:47.797Z,15.47
2019-05-07T04:54:52.791Z,16.37
2019-05-07T04:55:57.268Z,16.60
2019-05-07T04:57:03.703Z,16.73
2019-05-07T04:58:09.018Z,14.77
2019-05-07T04:59:13.558Z,14.77
2019-05-07T05:00:17.788Z,16.40
2019-05-07T05:01:23.819Z,15.50
2019-05-07T05:02:35.993Z,13.60
2019-05-07T05:03:43.453Z,13.57
2019-05-07T05:04:46.189Z,14.00
2019-05-07T05:05:52.940Z,15.50
2019-05-07T05:06:56.362Z,16.93
2019-05-07T05:08:00.699Z,23.63
2019-05-07T05:09:06.813Z,15.63
2019-05-07T05:10:13.402Z,13.73
2019-05-07T05:11:16.948Z,17.00
2019-05-07T05:12:22.971Z,17.67
2019-05-07T05:13:27.115Z,13.57
2019-05-07T05:14:33.743Z,15.63
2019-05-07T05:15:37.518Z,13.37
2019-05-07T05:16:42.553Z,12.77
2019-05-07T05:17:50.991Z,15.23
2019-05-07T05:18:53.186Z,16.77
2019-05-07T05:20:00.384Z,15.77
2019-05-07T05:21:24.426Z,17.67
2019-05-07T05:22:56.876Z,19.33
2019-05-07T05:24:04.718Z,20.30
2019-05-07T05:25:12.420Z,14.83
2019-05-07T05:26:16.751Z,20.33
2019-05-07T05:27:22.588Z,21.93
2019-05-07T05:28:26.959Z,14.30
2019-05-07T05:29:32.311Z,17.63
2019-05-07T05:30:42.714Z,13.83
2019-05-07T05:31:47.062Z,11.57
2019-05-07T05:32:52.037Z,12.43
2019-05-07T05:33:56.411Z,15.40
2019-05-07T05:35:03.309Z,22.93
2019-05-07T05:36:07.687Z,15.30
2019-05-07T05:37:12.057Z,16.90
2019-05-07T05:38:16.411Z,14.63
2019-05-07T05:39:22.462Z,13.70
2019-05-07T05:40:26.536Z,19.73
2019-05-07T05:41:33.812Z,17.73
2019-05-07T05:42:43.167Z,21.60
2019-05-07T05:44:02.372Z,18.50
2019-05-07T05:45:08.140Z,17.93
2019-05-07T05:46:12.862Z,15.57
2019-05-07T05:47:17.115Z,15.27
2019-05-07T05:48:22.359Z,18.17
2019-05-07T05:49:26.708Z,17.77
2019-05-07T05:50:34.227Z,14.17
2019-05-07T05:51:47.351Z,16.97
2019-05-07T05:52:56.166Z,15.80
2019-05-07T05:54:09.227Z,15.43
2019-05-07T05:55:18.739Z,10.63
2019-05-07T05:56:28.554Z,19.83
2019-05-07T05:57:42.417Z,26.37
2019-05-07T05:59:11.952Z,16.43
2019-05-07T06:00:43.520Z,14.07
2019-05-07T06:02:11.970Z,18.13
2019-05-07T06:03:43.611Z,14.80
2019-05-07T06:05:03.928Z,11.23
2019-05-07T06:06:39.191Z,14.53
2019-05-07T06:07:49.634Z,12.00
2019-05-07T06:09:15.670Z,11.87
2019-05-07T06:10:28.092Z,15.83
2019-05-07T06:11:45.540Z,11.00
2019-05-07T06:12:58.647Z,12.73
2019-05-07T06:14:22.240Z,12.57
2019-05-07T06:15:44.603Z,14.63
2019-05-07T06:16:55.516Z,11.57
2019-05-07T06:18:20.507Z,13.30
2019-05-07T06:19:35.496Z,12.83
2019-05-07T06:21:07.367Z,12.10
2019-05-07T06:22:42.835Z,14.20
2019-05-07T06:23:54.018Z,12.23
2019-05-07T06:25:04.628Z,14.13
2019-05-07T06:26:08.884Z,12.70
2019-05-07T06:27:13.120Z,11.97
2019-05-07T06:28:17.356Z,15.20
2019-05-07T06:29:23.163Z,9.53
2019-05-07T06:30:27.599Z,10.60
2019-05-07T06:31:32.685Z,16.37
2019-05-07T06:32:37.186Z,10.20
2019-05-07T06:33:42.930Z,10.73
2019-05-07T06:34:47.476Z,11.80
2019-05-07T06:35:52.140Z,10.37
2019-05-07T06:36:56.376Z,12.37
2019-05-07T06:38:02.744Z,13.37
2019-05-07T06:39:25.410Z,12.43
2019-05-07T06:40:48.603Z,10.03
2019-05-07T06:42:12.661Z,10.20
2019-05-07T06:43:38.870Z,11.47
2019-05-07T06:44:43.502Z,10.13
2019-05-07T06:45:51.937Z,11.63
2019-05-07T06:46:56.276Z,11.07
2019-05-07T06:48:02.822Z,10.57
2019-05-07T06:49:06.371Z,8.33
2019-05-07T06:50:12.529Z,9.23
2019-05-07T06:51:17.639Z,15.97
2019-05-07T06:52:22.519Z,10.93
2019-05-07T06:53:32.953Z,11.03
2019-05-07T06:54:36.519Z,11.17
2019-05-07T06:55:42.693Z,10.50
2019-05-07T06:56:48.940Z,10.33
2019-05-07T06:57:53.115Z,13.10
2019-05-07T06:59:12.810Z,12.13
2019-05-07T07:00:34.320Z,9.73
2019-05-07T07:01:56.153Z,10.00
2019-05-07T07:03:07.766Z,63.93
2019-05-07T07:04:15.575Z,13.20
2019-05-07T07:05:37.957Z,14.17
2019-05-07T07:07:26.137Z,10.10
2019-05-07T07:08:24.904Z,9.27
2019-05-07T07:09:57.196Z,11.40
2019-05-07T07:11:12.847Z,11.23
2019-05-07T07:12:18.674Z,9.17
2019-05-07T07:13:23.639Z,12.33
2019-05-07T07:14:27.879Z,10.67
2019-05-07T07:15:32.230Z,11.97
2019-05-07T07:16:36.605Z,9.53
2019-05-07T07:17:41.898Z,11.33
2019-05-07T07:18:51.948Z,11.23
2019-05-07T07:19:52.386Z,10.97
2019-05-07T07:20:56.587Z,10.53
2019-05-07T07:22:02.392Z,10.53
2019-05-07T07:23:06.799Z,11.30
2019-05-07T07:24:12.696Z,10.43
2019-05-07T07:25:17.068Z,9.30
2019-05-07T07:26:22.080Z,12.30
2019-05-07T07:27:26.426Z,12.07
2019-05-07T07:28:32.723Z,11.30
2019-05-07T07:29:38.308Z,7.77
2019-05-07T07:30:58.020Z,11.17
2019-05-07T07:32:04.022Z,9.83
2019-05-07T07:33:09.012Z,11.30
2019-05-07T07:34:13.250Z,8.10
2019-05-07T07:35:18.052Z,9.67
2019-05-07T07:36:23.886Z,13.03
2019-05-07T07:37:32.302Z,12.93
2019-05-07T07:38:36.890Z,12.43
2019-05-07T07:39:43.030Z,11.47
2019-05-07T07:40:52.772Z,13.47
2019-05-07T07:41:59.367Z,9.00
2019-05-07T07:43:06.828Z,8.47
2019-05-07T07:44:09.492Z,9.33
2019-05-07T07:45:17.478Z,8.23
2019-05-07T07:46:22.318Z,10.70
2019-05-07T07:47:26.699Z,9.93
2019-05-07T07:48:32.114Z,8.40
2019-05-07T07:49:36.490Z,8.67
2019-05-07T07:50:42.141Z,9.73
2019-05-07T07:51:46.405Z,9.40
2019-05-07T07:52:52.802Z,9.33
2019-05-07T07:53:56.739Z,8.33
2019-05-07T07:55:02.168Z,9.07
2019-05-07T07:56:50.104Z,9.30
2019-05-07T07:57:52.327Z,6.50
2019-05-07T07:59:18.294Z,9.57
2019-05-07T08:00:59.716Z,10.10
2019-05-07T08:02:12.229Z,8.20
2019-05-07T08:03:15.830Z,8.17
2019-05-07T08:04:20.051Z,9.83
2019-05-07T08:05:24.280Z,8.60
2019-05-07T08:06:32.554Z,7.87
2019-05-07T08:07:36.244Z,10.33
2019-05-07T08:08:42.407Z,7.57
2019-05-07T08:09:46.346Z,7.27
2019-05-07T08:10:52.010Z,9.57
2019-05-07T08:11:56.302Z,9.70
2019-05-07T08:13:01.929Z,6.20
2019-05-07T08:14:06.723Z,5.70
2019-05-07T08:15:18.210Z,10.87
2019-05-07T08:16:16.856Z,7.83
2019-05-07T08:17:22.352Z,8.37
2019-05-07T08:18:26.997Z,8.00
2019-05-07T08:19:32.792Z,7.33
2019-05-07T08:20:37.279Z,5.73
2019-05-07T08:21:42.090Z,8.27
2019-05-07T08:22:46.455Z,8.93
2019-05-07T08:23:52.739Z,7.73
2019-05-07T08:24:56.596Z,6.60
2019-05-07T08:26:02.553Z,10.17
2019-05-07T08:27:06.696Z,7.83
2019-05-07T08:28:11.919Z,6.73
2019-05-07T08:29:16.203Z,10.63
2019-05-07T08:30:23.253Z,7.58
2019-05-07T08:31:44.250Z,11.08
2019-05-07T08:32:53.056Z,8.13
2019-05-07T08:34:02.925Z,9.70
2019-05-07T08:35:14.415Z,7.65
2019-05-07T08:36:18.864Z,7.90
2019-05-07T08:37:24.559Z,7.12
2019-05-07T08:38:32.737Z,9.33
2019-05-07T08:39:37.060Z,8.05
2019-05-07T08:40:41.880Z,5.87
2019-05-07T08:41:46.139Z,6.97
2019-05-07T08:42:52.414Z,7.58
2019-05-07T08:44:11.435Z,8.18
2019-05-07T08:45:32.606Z,4.55
2019-05-07T08:47:04.975Z,5.55
2019-05-07T08:48:14.321Z,5.45
2019-05-07T08:49:31.703Z,7.30
2019-05-07T08:50:24.788Z,7.62
2019-05-07T08:51:29.090Z,8.10
2019-05-07T08:52:33.344Z,8.25
2019-05-07T08:53:37.612Z,5.10
2019-05-07T08:54:42.821Z,7.22
2019-05-07T08:55:47.212Z,9.00
2019-05-07T08:56:52.763Z,4.03
2019-05-07T08:57:57.084Z,5.20
2019-05-07T08:59:02.066Z,5.25
2019-05-07T09:00:06.851Z,5.12
2019-05-07T09:01:11.841Z,6.30
2019-05-07T09:02:16.351Z,5.95
2019-05-07T09:03:38.492Z,7.33
2019-05-07T09:04:42.732Z,6.78
2019-05-07T09:05:46.967Z,5.90
2019-05-07T09:06:51.958Z,7.03
2019-05-07T09:07:56.270Z,6.15
2019-05-07T09:09:02.243Z,6.25
2019-05-07T09:10:06.857Z,7.62
2019-05-07T09:11:13.211Z,7.78
2019-05-07T09:12:16.975Z,6.90
2019-05-07T09:13:22.604Z,7.62
2019-05-07T09:14:26.908Z,5.85
2019-05-07T09:15:32.047Z,5.53
2019-05-07T09:16:36.427Z,6.45
2019-05-07T09:17:42.333Z,5.17
2019-05-07T09:18:46.699Z,5.37
2019-05-07T09:19:53.989Z,5.87
2019-05-07T09:20:56.918Z,3.83
2019-05-07T09:22:02.112Z,4.65
2019-05-07T09:23:06.631Z,7.00
2019-05-07T09:24:12.203Z,6.05
2019-05-07T09:25:16.651Z,6.12
2019-05-07T09:26:24.524Z,5.33
2019-05-07T09:27:39.423Z,4.58
2019-05-07T09:28:53.583Z,5.47
2019-05-07T09:30:12.883Z,3.72
2019-05-07T09:31:22.754Z,3.92
2019-05-07T09:32:51.984Z,5.47
2019-05-07T09:33:56.133Z,3.77
2019-05-07T09:35:02.290Z,4.10
2019-05-07T09:36:09.256Z,4.05
2019-05-07T09:37:15.546Z,4.58
2019-05-07T09:38:19.793Z,4.25
2019-05-07T09:39:24.019Z,4.83
2019-05-07T09:40:28.305Z,6.60
2019-05-07T09:41:32.821Z,4.55
2019-05-07T09:42:37.192Z,4.00
2019-05-07T09:43:42.443Z,5.62
2019-05-07T09:44:46.823Z,4.97
2019-05-07T09:45:52.314Z,4.60
2019-05-07T09:46:56.685Z,5.62
2019-05-07T09:48:02.845Z,4.77
2019-05-07T09:49:06.783Z,4.97
2019-05-07T09:50:11.931Z,6.97
2019-05-07T09:51:16.278Z,5.10
2019-05-07T09:52:22.648Z,6.63
2019-05-07T09:53:26.396Z,4.00
2019-05-07T09:54:32.382Z,6.97
2019-05-07T09:55:36.682Z,5.73
2019-05-07T09:56:42.218Z,6.07
2019-05-07T09:57:46.573Z,3.40
2019-05-07T09:58:52.919Z,3.77
2019-05-07T09:59:56.682Z,6.10
2019-05-07T10:01:02.069Z,5.47
2019-05-07T10:02:06.411Z,7.13
2019-05-07T10:03:12.675Z,3.13
2019-05-07T10:04:16.578Z,3.30
2019-05-07T10:05:20.837Z,2.43
2019-05-07T10:06:25.059Z,3.87
2019-05-07T10:07:29.278Z,6.40
2019-05-07T10:08:33.547Z,5.30
2019-05-07T10:09:37.775Z,4.07
2019-05-07T10:10:42.654Z,3.00
2019-05-07T10:11:56.744Z,10.17
2019-05-07T10:13:05.903Z,4.27
2019-05-07T10:14:12.501Z,6.17
2019-05-07T10:15:17.450Z,4.60
2019-05-07T10:16:28.616Z,15.77
2019-05-07T10:17:57.918Z,26.13
2019-05-07T10:19:02.181Z,6.40
2019-05-07T10:20:18.102Z,15.57
2019-05-07T10:21:12.775Z,12.40
2019-05-07T10:22:17.123Z,16.13
2019-05-07T10:23:23.003Z,11.17
2019-05-07T10:24:27.373Z,5.63
2019-05-07T10:25:41.027Z,11.40
2019-05-07T10:26:45.252Z,5.67
2019-05-07T10:27:49.498Z,10.40
2019-05-07T10:28:53.729Z,10.87
2019-05-07T10:29:58.056Z,10.57
2019-05-07T10:31:02.312Z,6.93
2019-05-07T10:32:06.768Z,19.27
2019-05-07T10:33:12.390Z,12.50
2019-05-07T10:34:16.723Z,6.87
2019-05-07T10:35:22.959Z,5.93
2019-05-07T10:36:26.879Z,11.90
2019-05-07T10:37:31.935Z,18.93
2019-05-07T10:38:36.256Z,7.10
2019-05-07T10:39:40.488Z,4.53
2019-05-07T10:40:44.718Z,4.27
2019-05-07T10:41:49.101Z,7.10
2019-05-07T10:42:53.392Z,13.50
2019-05-07T10:43:57.628Z,5.83
2019-05-07T10:45:13.054Z,4.37
2019-05-07T10:46:42.154Z,20.97
2019-05-07T10:47:56.435Z,22.40
2019-05-07T10:49:06.536Z,7.03
2019-05-07T10:50:35.538Z,8.27
2019-05-07T10:51:28.763Z,7.10
2019-05-07T10:52:33.016Z,8.13
2019-05-07T10:53:37.256Z,4.63
2019-05-07T10:54:41.519Z,6.03
2019-05-07T10:55:45.765Z,7.10
2019-05-07T10:56:52.293Z,6.57
2019-05-07T10:57:55.925Z,5.63
2019-05-07T10:59:02.658Z,5.47
2019-05-07T11:00:07.215Z,5.20
2019-05-07T11:01:13.007Z,6.73
2019-05-07T11:02:21.941Z,6.93
2019-05-07T11:03:26.232Z,4.37
2019-05-07T11:04:40.337Z,4.00
2019-05-07T11:05:36.352Z,5.30
2019-05-07T11:06:41.773Z,3.97
2019-05-07T11:07:46.163Z,5.93
2019-05-07T11:08:51.905Z,6.30
2019-05-07T11:09:56.138Z,5.57
2019-05-07T11:11:02.723Z,5.40
2019-05-07T11:12:06.285Z,5.50
2019-05-07T11:13:12.634Z,4.37
2019-05-07T11:14:16.416Z,3.97
2019-05-07T11:15:22.013Z,7.67
2019-05-07T11:16:32.443Z,5.43
2019-05-07T11:17:58.832Z,4.37
2019-05-07T11:19:03.310Z,4.27
2019-05-07T11:20:07.531Z,6.03
2019-05-07T11:21:11.918Z,4.70
2019-05-07T11:22:16.228Z,5.23
2019-05-07T11:23:22.259Z,5.47
2019-05-07T11:24:26.548Z,4.83
2019-05-07T11:25:30.806Z,5.07
2019-05-07T11:26:35.143Z,6.83
2019-05-07T11:27:39.409Z,5.77
2019-05-07T11:28:43.644Z,5.57
2019-05-07T11:29:47.883Z,4.10
2019-05-07T11:30:52.114Z,4.70
2019-05-07T11:31:56.344Z,5.57
2019-05-07T11:33:02.492Z,4.83
2019-05-07T11:34:06.513Z,7.93
2019-05-07T11:35:11.794Z,6.47
2019-05-07T11:36:16.591Z,5.40
2019-05-07T11:37:22.589Z,5.63
2019-05-07T11:38:27.059Z,7.23
2019-05-07T11:39:33.117Z,5.53
2019-05-07T11:40:37.147Z,5.37
2019-05-07T11:41:55.950Z,5.85
2019-05-07T11:43:09.499Z,4.60
2019-05-07T11:44:18.242Z,3.85
2019-05-07T11:45:28.703Z,4.22
2019-05-07T11:46:41.562Z,4.62
2019-05-07T11:47:46.201Z,5.80
2019-05-07T11:48:55.354Z,4.92
2019-05-07T11:50:17.207Z,4.62
2019-05-07T11:51:33.438Z,3.92
2019-05-07T11:52:39.847Z,6.75
2019-05-07T11:54:02.110Z,5.22
2019-05-07T11:55:06.479Z,5.97
2019-05-07T11:56:11.749Z,5.72
2019-05-07T11:57:16.057Z,5.83
2019-05-07T11:58:22.008Z,5.22
2019-05-07T11:59:26.188Z,4.85
2019-05-07T12:00:44.472Z,6.20
2019-05-07T12:01:52.722Z,5.77
2019-05-07T12:02:57.107Z,5.70
2019-05-07T12:04:01.970Z,4.83
2019-05-07T12:05:06.386Z,6.37
2019-05-07T12:06:12.450Z,7.00
2019-05-07T12:07:16.501Z,5.40
2019-05-07T12:08:23.676Z,4.90
2019-05-07T12:09:26.644Z,5.33
2019-05-07T12:10:32.603Z,6.13
2019-05-07T12:11:37.026Z,5.63
2019-05-07T12:12:47.922Z,5.00
2019-05-07T12:13:52.392Z,9.90
2019-05-07T12:14:56.696Z,5.20
2019-05-07T12:16:02.869Z,6.17
2019-05-07T12:17:06.859Z,5.27
2019-05-07T12:18:11.890Z,6.33
2019-05-07T12:19:18.256Z,5.33
2019-05-07T12:20:22.239Z,7.00
2019-05-07T12:21:26.486Z,6.73
2019-05-07T12:22:48.654Z,5.17
2019-05-07T12:23:52.855Z,6.93
2019-05-07T12:24:57.091Z,6.83
2019-05-07T12:26:02.330Z,6.87
2019-05-07T12:27:06.667Z,6.03
2019-05-07T12:28:13.075Z,6.20
2019-05-07T12:29:16.890Z,7.20
2019-05-07T12:30:29.335Z,7.20
2019-05-07T12:31:42.862Z,5.93
2019-05-07T12:32:58.062Z,5.90
2019-05-07T12:34:08.760Z,6.13
2019-05-07T12:35:15.606Z,7.07
2019-05-07T12:36:19.943Z,6.03
2019-05-07T12:37:24.192Z,5.97
2019-05-07T12:38:28.427Z,6.93
2019-05-07T12:39:33.229Z,7.80
2019-05-07T12:40:37.472Z,6.27
2019-05-07T12:41:42.097Z,6.13
2019-05-07T12:42:46.278Z,8.03
2019-05-07T12:43:52.004Z,7.13
2019-05-07T12:44:56.270Z,6.47
2019-05-07T12:46:02.714Z,5.83
2019-05-07T12:47:07.389Z,6.73
2019-05-07T12:48:14.162Z,6.33
2019-05-07T12:49:17.812Z,5.67
2019-05-07T12:50:22.058Z,5.80
2019-05-07T12:51:34.579Z,7.90
2019-05-07T12:52:47.886Z,6.47
2019-05-07T12:53:56.915Z,7.73
2019-05-07T12:55:20.107Z,6.40
2019-05-07T12:56:25.003Z,5.70
2019-05-07T12:57:29.330Z,6.40
2019-05-07T12:58:33.566Z,7.20
2019-05-07T12:59:37.832Z,7.97
2019-05-07T13:01:07.248Z,6.47
2019-05-07T13:02:40.918Z,8.23
2019-05-07T13:04:10.675Z,7.30
2019-05-07T13:05:14.957Z,7.27
2019-05-07T13:06:19.197Z,7.57
2019-05-07T13:07:48.687Z,9.77
2019-05-07T13:08:52.990Z,7.43
2019-05-07T13:09:57.436Z,7.27
2019-05-07T13:11:03.121Z,7.83
2019-05-07T13:12:07.622Z,7.60
2019-05-07T13:13:12.325Z,8.13
2019-05-07T13:14:16.687Z,8.40
2019-05-07T13:15:26.980Z,9.03
2019-05-07T13:16:26.845Z,8.20
2019-05-07T13:17:31.100Z,9.30
2019-05-07T13:18:35.350Z,10.03
2019-05-07T13:19:41.860Z,6.93
2019-05-07T13:20:48.749Z,10.43
2019-05-07T13:21:51.679Z,8.33
2019-05-07T13:22:55.905Z,7.80
2019-05-07T13:24:00.131Z,9.47
2019-05-07T13:25:04.648Z,7.30
2019-05-07T13:26:08.859Z,9.33
2019-05-07T13:27:13.087Z,9.77
2019-05-07T13:28:17.278Z,10.33
2019-05-07T13:29:22.204Z,9.93
2019-05-07T13:30:26.567Z,9.00
2019-05-07T13:31:32.655Z,10.17
2019-05-07T13:32:37.156Z,10.97
2019-05-07T13:33:42.118Z,9.70
2019-05-07T13:34:46.612Z,8.90
2019-05-07T13:35:52.298Z,8.73
2019-05-07T13:36:59.698Z,9.03
2019-05-07T13:38:26.442Z,9.80
2019-05-07T13:39:34.765Z,7.57
2019-05-07T13:40:57.945Z,7.93
2019-05-07T13:42:12.559Z,7.97
2019-05-07T13:43:23.055Z,9.30
2019-05-07T13:44:45.206Z,9.50
2019-05-07T13:45:57.435Z,7.67
2019-05-07T13:47:19.195Z,7.37
2019-05-07T13:48:23.649Z,10.03
2019-05-07T13:49:27.997Z,8.43
2019-05-07T13:50:32.619Z,8.53
2019-05-07T13:51:36.917Z,9.27
2019-05-07T13:52:43.390Z,9.10
2019-05-07T13:53:47.675Z,9.10
2019-05-07T13:54:52.659Z,8.87
2019-05-07T13:55:57.302Z,9.10
2019-05-07T13:57:01.527Z,9.00
2019-05-07T13:58:06.191Z,8.63
2019-05-07T13:59:10.400Z,8.23
2019-05-07T14:00:21.855Z,8.60
2019-05-07T14:01:54.370Z,8.83
2019-05-07T14:02:58.599Z,8.43
2019-05-07T14:04:04.048Z,9.33
2019-05-07T14:05:08.427Z,8.30
2019-05-07T14:06:16.578Z,9.57
2019-05-07T14:07:21.765Z,8.60
2019-05-07T14:08:27.294Z,12.50
2019-05-07T14:09:32.622Z,8.77
2019-05-07T14:10:37.182Z,10.07
2019-05-07T14:11:42.344Z,9.97
2019-05-07T14:12:46.678Z,10.33
2019-05-07T14:13:52.258Z,10.60
2019-05-07T14:14:56.546Z,9.67
2019-05-07T14:16:08.272Z,11.93
2019-05-07T14:17:12.805Z,11.67
2019-05-07T14:18:17.909Z,12.03
2019-05-07T14:19:22.588Z,10.33
2019-05-07T14:20:27.446Z,12.03
2019-05-07T14:21:32.491Z,10.67
2019-05-07T14:22:36.856Z,10.80
2019-05-07T14:23:42.795Z,10.20
2019-05-07T14:24:46.981Z,10.20
2019-05-07T14:25:52.668Z,10.27
2019-05-07T14:26:56.994Z,10.23
2019-05-07T14:28:02.296Z,14.10
2019-05-07T14:29:06.611Z,38.83
2019-05-07T14:30:12.968Z,11.33
2019-05-07T14:31:16.980Z,10.63
2019-05-07T14:32:27.259Z,11.00
2019-05-07T14:33:59.526Z,10.17
2019-05-07T14:35:19.803Z,10.23
2019-05-07T14:36:28.540Z,10.13
2019-05-07T14:37:39.027Z,10.77
2019-05-07T14:38:45.879Z,10.17
2019-05-07T14:39:51.815Z,10.50
2019-05-07T14:40:56.193Z,10.80
2019-05-07T14:42:02.748Z,10.57
2019-05-07T14:43:12.590Z,10.53
2019-05-07T14:44:17.219Z,14.60
2019-05-07T14:45:23.530Z,31.77